Time;durP1;ratioP1;P1;durP2;ratioP2;P2;SDS_P1;SDS_P2;PMS_P1;PMS_P2;Temp;Humidity;BMP_temperature;BMP_pressure;BME280_temperature;BME280_humidity;BME280_pressure;Samples;Min_cycle;Max_cycle;Signal;HPM_P1;HPM_P2
2021/07/28 00:01:33;;;;;;;9.20;8.50;;;;;;;22.75;78.68;101004.34;5981067;29;20488;-75
2021/07/28 00:04:39;;;;;;;11.38;9.23;;;;;;;22.84;78.22;100997.00;5982038;29;20475;-75
2021/07/28 00:07:45;;;;;;;11.48;9.35;;;;;;;22.81;78.30;100994.78;5982099;29;20211;-77
2021/07/28 00:10:49;;;;;;;9.70;8.80;;;;;;;22.94;77.45;100992.16;5982153;29;20193;-75
2021/07/28 00:13:54;;;;;;;12.27;8.80;;;;;;;22.90;77.73;100979.97;5980829;29;20496;-75
2021/07/28 00:17:01;;;;;;;9.65;8.75;;;;;;;22.77;78.24;100985.41;5981855;29;20228;-76
2021/07/28 00:20:10;;;;;;;9.75;8.85;;;;;;;22.83;77.90;100979.47;5981838;29;20201;-74
2021/07/28 00:23:19;;;;;;;9.88;8.98;;;;;;;22.81;78.25;100966.97;5981523;29;20193;-74
2021/07/28 00:26:23;;;;;;;11.95;9.30;;;;;;;22.75;78.35;100948.72;5981588;29;20197;-74
2021/07/28 00:29:27;;;;;;;10.48;9.52;;;;;;;22.51;79.48;100947.81;5980845;29;20483;-76
2021/07/28 00:32:34;;;;;;;9.75;8.95;;;;;;;22.63;78.74;100956.59;5980408;29;20273;-74
2021/07/28 00:35:38;;;;;;;10.15;9.15;;;;;;;22.43;80.03;100957.63;5981506;29;20224;-74
2021/07/28 00:38:44;;;;;;;10.10;8.82;;;;;;;22.36;80.36;100957.97;5980273;29;20229;-74
2021/07/28 00:41:51;;;;;;;10.02;8.50;;;;;;;22.31;80.45;100960.78;5980194;29;20453;-74
2021/07/28 00:44:56;;;;;;;12.13;9.43;;;;;;;22.29;79.75;100959.44;5981366;29;20204;-74
2021/07/28 00:48:00;;;;;;;10.20;9.35;;;;;;;22.25;80.20;100970.28;5981383;29;20268;-74
2021/07/28 00:51:06;;;;;;;10.35;9.27;;;;;;;22.26;80.07;100963.59;5980098;29;20193;-74
2021/07/28 00:54:11;;;;;;;16.35;9.48;;;;;;;22.30;79.82;100969.41;5981037;29;20193;-75
2021/07/28 00:57:16;;;;;;;10.70;9.32;;;;;;;22.44;78.96;100960.09;5981020;29;20248;-75
2021/07/28 01:00:21;;;;;;;12.20;9.80;;;;;;;22.45;78.91;100961.75;5981112;29;20193;-74
2021/07/28 01:03:25;;;;;;;11.93;9.50;;;;;;;22.48;78.57;100951.16;5980376;29;20245;-74
2021/07/28 01:06:32;;;;;;;10.13;9.20;;;;;;;22.35;79.23;100958.25;5981089;29;20200;-74
2021/07/28 01:09:38;;;;;;;9.98;9.07;;;;;;;22.34;79.83;100964.94;5980719;29;20243;-74
2021/07/28 01:12:47;;;;;;;11.70;10.15;;;;;;;22.27;80.00;100956.91;5980693;29;20197;-74
2021/07/28 01:15:55;;;;;;;11.25;9.77;;;;;;;22.15;80.70;100967.59;5979560;29;20193;-74
2021/07/28 01:19:01;;;;;;;13.45;9.77;;;;;;;22.01;81.80;100955.47;5979496;29;20365;-75
2021/07/28 01:22:06;;;;;;;11.70;9.45;;;;;;;22.11;81.58;100960.13;5979967;29;20193;-75
2021/07/28 01:25:12;;;;;;;11.57;9.85;;;;;;;22.30;80.61;100941.63;5980427;29;20314;-74
2021/07/28 01:28:17;;;;;;;10.30;9.27;;;;;;;22.29;80.45;100951.91;5979755;29;20204;-75
2021/07/28 01:31:22;;;;;;;10.60;9.52;;;;;;;22.28;80.51;100939.13;5979391;29;20640;-74
2021/07/28 01:34:26;;;;;;;10.82;9.75;;;;;;;22.33;80.15;100936.31;5979067;29;20209;-74
2021/07/28 01:37:32;;;;;;;11.10;9.63;;;;;;;22.30;80.36;100936.06;5980371;29;20237;-74
2021/07/28 01:40:40;;;;;;;10.73;9.82;;;;;;;22.25;80.71;100931.38;5979662;29;20200;-74
2021/07/28 01:43:44;;;;;;;13.13;10.02;;;;;;;22.21;81.53;100933.06;5979153;29;20432;-74
2021/07/28 01:46:49;;;;;;;12.27;9.70;;;;;;;22.17;81.44;100943.13;5980446;29;20193;-75
2021/07/28 01:49:53;;;;;;;10.70;9.65;;;;;;;22.02;82.46;100934.91;5978575;29;20212;-74
2021/07/28 01:53:01;;;;;;;11.38;10.02;;;;;;;22.17;81.22;100932.00;5980395;29;20197;-74
2021/07/28 01:56:07;;;;;;;12.50;9.65;;;;;;;22.15;82.17;100931.47;5986611;29;20192;-74
2021/07/28 01:59:15;;;;;;;12.43;9.82;;;;;;;21.95;82.27;100928.03;5987433;29;20227;-73
2021/07/28 02:02:21;;;;;;;12.63;10.05;;;;;;;22.01;82.22;100933.25;5987277;29;20236;-74
2021/07/28 02:05:26;;;;;;;11.27;10.18;;;;;;;21.98;82.26;100933.81;5987819;29;20196;-74
2021/07/28 02:08:30;;;;;;;14.25;10.73;;;;;;;22.01;82.02;100933.25;5987390;29;20197;-76
2021/07/28 02:11:37;;;;;;;12.07;10.13;;;;;;;22.11;81.73;100927.59;5987271;29;20225;-74
2021/07/28 02:14:41;;;;;;;12.93;10.10;;;;;;;22.17;81.37;100920.88;5986351;29;20421;-74
2021/07/28 02:17:45;;;;;;;11.05;9.95;;;;;;;22.16;81.62;100919.22;5987204;29;20224;-74
2021/07/28 02:20:51;;;;;;;12.25;9.93;;;;;;;22.04;82.09;100916.00;5987563;29;20194;-75
2021/07/28 02:23:57;;;;;;;14.95;10.60;;;;;;;21.89;83.00;100918.91;5986314;29;20276;-74
2021/07/28 02:27:04;;;;;;;10.80;9.70;;;;;;;21.86;82.98;100918.66;5987227;29;20216;-74
2021/07/28 02:30:12;;;;;;;11.68;10.50;;;;;;;21.95;82.98;100920.53;5986646;29;20204;-75
2021/07/28 02:33:16;;;;;;;12.65;10.52;;;;;;;21.84;83.96;100927.25;5986112;29;20480;-75
2021/07/28 02:36:23;;;;;;;11.40;10.32;;;;;;;22.00;83.37;100920.50;5986153;29;20241;-74
2021/07/28 02:39:27;;;;;;;13.07;10.90;;;;;;;22.07;82.55;100914.59;5986991;29;20221;-74
2021/07/28 02:42:32;;;;;;;12.20;10.85;;;;;;;22.14;82.41;100915.91;5987343;29;20194;-74
2021/07/28 02:45:37;;;;;;;13.30;11.15;;;;;;;21.96;83.97;100919.41;5986340;29;20508;-74
2021/07/28 02:48:41;;;;;;;14.60;10.35;;;;;;;21.90;83.99;100915.03;5987322;29;20197;-75
2021/07/28 02:51:45;;;;;;;11.18;10.07;;;;;;;21.73;85.76;100912.59;5987027;29;20267;-75
2021/07/28 02:54:49;;;;;;;11.57;10.57;;;;;;;21.91;84.75;100915.84;5986951;29;20193;-75
2021/07/28 02:57:54;;;;;;;11.80;10.60;;;;;;;21.86;85.59;100900.03;5987023;29;20301;-74
2021/07/28 03:01:01;;;;;;;11.45;10.43;;;;;;;21.81;85.49;100905.59;5986890;29;20242;-74
2021/07/28 03:04:06;;;;;;;12.27;10.90;;;;;;;21.89;84.87;100907.81;5986001;29;20252;-74
2021/07/28 03:07:10;;;;;;;11.68;10.50;;;;;;;21.81;85.91;100900.06;5982959;29;20197;-74
2021/07/28 03:10:14;;;;;;;11.77;10.57;;;;;;;21.88;85.13;100905.31;5983567;29;20203;-74
2021/07/28 03:13:20;;;;;;;12.10;11.00;;;;;;;21.86;85.28;100902.81;5983605;29;20231;-75
2021/07/28 03:16:24;;;;;;;11.25;10.27;;;;;;;21.79;85.64;100907.84;5983492;29;20208;-75
2021/07/28 03:19:28;;;;;;;12.95;10.70;;;;;;;21.94;84.50;100891.09;5983405;29;20221;-74
2021/07/28 03:22:33;;;;;;;11.77;10.65;;;;;;;21.76;85.48;100900.09;5982043;29;20436;-74
2021/07/28 03:25:40;;;;;;;12.05;10.85;;;;;;;21.55;86.73;100884.69;5981942;29;20547;-74
2021/07/28 03:28:46;;;;;;;11.48;10.32;;;;;;;21.75;85.65;100887.34;5982071;29;20204;-74
2021/07/28 03:31:50;;;;;;;11.90;10.73;;;;;;;21.86;85.12;100886.16;5982225;29;20272;-75
2021/07/28 03:34:54;;;;;;;13.98;10.98;;;;;;;21.78;85.38;100895.06;5981734;29;20438;-74
2021/07/28 03:38:00;;;;;;;11.95;10.88;;;;;;;21.84;84.99;100893.94;5981582;29;20202;-74
2021/07/28 03:41:07;;;;;;;11.73;10.65;;;;;;;21.91;84.45;100891.66;5982184;29;20193;-74
2021/07/28 03:44:18;;;;;;;12.43;11.23;;;;;;;21.94;84.27;100888.31;5982100;29;20201;-74
2021/07/28 03:47:22;;;;;;;13.27;11.27;;;;;;;21.88;85.03;100889.47;5982631;29;20201;-74
2021/07/28 03:50:27;;;;;;;12.65;11.45;;;;;;;21.83;84.91;100876.44;5982295;29;20197;-74
2021/07/28 03:53:32;;;;;;;11.73;10.52;;;;;;;21.92;84.90;100884.16;5981299;29;20193;-74
2021/07/28 03:56:36;;;;;;;14.63;11.55;;;;;;;21.76;85.50;100880.66;5981269;29;20534;-74
2021/07/28 03:59:42;;;;;;;13.60;11.40;;;;;;;21.70;86.02;100881.81;5982065;29;20289;-74
2021/07/28 04:02:47;;;;;;;14.00;12.60;;;;;;;21.82;85.72;100885.06;5980950;29;20413;-74
2021/07/28 04:05:54;;;;;;;13.63;11.13;;;;;;;21.78;86.27;100883.97;5981909;29;20200;-74
2021/07/28 04:08:58;;;;;;;14.05;12.05;;;;;;;21.84;85.46;100877.25;5981157;29;20515;-74
2021/07/28 04:12:02;;;;;;;11.82;10.70;;;;;;;21.87;84.89;100865.59;5982351;29;20260;-74
2021/07/28 04:15:10;;;;;;;13.30;11.68;;;;;;;21.74;85.65;100866.25;5982228;29;20229;-74
2021/07/28 04:18:15;;;;;;;12.02;10.95;;;;;;;21.83;84.97;100861.69;5981396;29;20200;-74
2021/07/28 04:21:19;;;;;;;13.75;11.70;;;;;;;21.76;85.18;100853.72;5981461;29;20217;-75
2021/07/28 04:24:23;;;;;;;12.55;11.27;;;;;;;21.85;84.93;100865.03;5982130;29;20193;-74
2021/07/28 04:27:29;;;;;;;12.70;11.50;;;;;;;21.94;84.18;100854.16;5980651;29;20385;-74
2021/07/28 04:30:36;;;;;;;14.10;11.38;;;;;;;21.92;84.25;100857.22;5981710;29;20197;-74
2021/07/28 04:33:40;;;;;;;12.52;11.30;;;;;;;21.87;85.11;100848.94;5981838;29;20260;-75
2021/07/28 04:36:45;;;;;;;12.43;11.25;;;;;;;21.90;85.07;100853.91;5980423;29;20371;-74
2021/07/28 04:39:49;;;;;;;12.95;11.55;;;;;;;21.99;84.30;100854.94;5980418;29;20248;-75
2021/07/28 04:42:54;;;;;;;13.05;11.75;;;;;;;22.03;84.02;100841.28;5981379;29;20265;-74
2021/07/28 04:46:02;;;;;;;12.35;11.25;;;;;;;22.02;84.15;100839.63;5980045;29;20208;-75
2021/07/28 04:49:06;;;;;;;13.43;11.80;;;;;;;22.09;83.27;100840.94;5981489;29;20197;-74
2021/07/28 04:52:13;;;;;;;18.17;12.07;;;;;;;22.11;83.47;100829.56;5981137;29;20234;-75
2021/07/28 04:55:17;;;;;;;15.10;11.82;;;;;;;22.12;83.29;100829.25;5980742;29;20243;-74
2021/07/28 04:58:22;;;;;;;15.82;12.23;;;;;;;22.20;82.82;100830.56;5980143;29;20457;-75
2021/07/28 05:01:27;;;;;;;13.57;12.20;;;;;;;22.22;82.31;100820.78;5979010;29;20238;-75
2021/07/28 05:04:32;;;;;;;13.82;11.70;;;;;;;22.32;82.42;100828.19;5980981;29;20244;-74
2021/07/28 05:07:36;;;;;;;14.18;11.48;;;;;;;22.21;83.55;100833.03;5978633;29;20281;-74
2021/07/28 05:10:41;;;;;;;13.82;12.20;;;;;;;22.28;83.34;100819.63;5980680;29;20229;-75
2021/07/28 05:13:45;;;;;;;15.85;11.88;;;;;;;22.39;82.95;100823.94;5981103;29;20280;-75
2021/07/28 05:16:52;;;;;;;14.13;12.45;;;;;;;22.42;83.73;100828.91;5979392;29;20535;-75
2021/07/28 05:19:58;;;;;;;13.18;11.88;;;;;;;22.39;83.80;100834.25;5980554;29;20232;-75
2021/07/28 05:23:03;;;;;;;16.80;12.55;;;;;;;22.34;84.32;100821.22;5980510;29;20193;-75
2021/07/28 05:26:08;;;;;;;12.45;11.15;;;;;;;22.35;83.76;100817.31;5980570;29;20215;-75
2021/07/28 05:29:13;;;;;;;13.80;11.88;;;;;;;22.44;83.54;100823.06;5980118;29;20193;-75
2021/07/28 05:32:19;;;;;;;14.93;12.45;;;;;;;22.44;83.84;100814.72;5979423;29;20192;-75
2021/07/28 05:35:27;;;;;;;15.73;12.70;;;;;;;22.45;83.66;100817.19;5979311;29;20420;-76
2021/07/28 05:38:31;;;;;;;14.18;12.73;;;;;;;22.44;83.90;100821.09;5979331;29;20208;-75
2021/07/28 05:41:36;;;;;;;14.65;12.45;;;;;;;22.38;84.77;100816.72;5980521;29;20220;-75
2021/07/28 05:44:40;;;;;;;14.23;12.77;;;;;;;22.37;85.08;100812.28;5980264;29;20269;-76
2021/07/28 05:47:47;;;;;;;13.60;12.20;;;;;;;22.46;84.39;100806.91;5980454;29;20264;-76
2021/07/28 05:50:51;;;;;;;14.10;12.60;;;;;;;22.56;84.29;100815.13;5979117;29;20469;-76
2021/07/28 05:53:57;;;;;;;16.98;12.70;;;;;;;22.54;84.31;100802.66;5976308;29;20393;-76
2021/07/28 05:57:04;;;;;;;14.48;12.95;;;;;;;22.62;84.32;100804.78;5956650;30;20513;-76
2021/07/28 06:00:12;;;;;;;14.00;12.40;;;;;;;22.55;84.94;100809.84;5956605;30;20410;-75
2021/07/28 06:03:19;;;;;;;14.00;12.60;;;;;;;22.49;85.97;100799.94;5956555;30;20532;-75
2021/07/28 06:06:26;;;;;;;13.48;12.15;;;;;;;22.52;85.68;100804.91;5957698;30;20194;-75
2021/07/28 06:09:30;;;;;;;14.10;12.70;;;;;;;22.50;84.86;100802.41;5956003;29;20216;-76
2021/07/28 06:12:34;;;;;;;14.50;12.40;;;;;;;22.50;85.18;100812.69;5957543;30;20200;-75
2021/07/28 06:15:38;;;;;;;17.00;12.18;;;;;;;22.57;85.16;100814.00;5957533;29;20194;-75
2021/07/28 06:18:47;;;;;;;14.00;11.48;;;;;;;22.55;83.71;100820.97;5956313;30;20500;-75
2021/07/28 06:21:51;;;;;;;12.38;10.77;;;;;;;22.54;83.13;100802.66;5957103;30;20253;-75
2021/07/28 06:24:55;;;;;;;12.10;10.65;;;;;;;22.55;81.87;100809.84;5956391;30;20194;-74
2021/07/28 06:27:59;;;;;;;11.98;10.63;;;;;;;22.70;81.39;100809.72;5957356;30;20194;-75
2021/07/28 06:31:04;;;;;;;11.93;10.82;;;;;;;22.70;81.28;100812.50;5957117;30;20209;-75
2021/07/28 06:34:11;;;;;;;12.38;11.20;;;;;;;22.66;82.20;100811.41;5957034;30;20193;-75
2021/07/28 06:37:15;;;;;;;12.63;11.23;;;;;;;22.81;81.83;100802.88;5956758;30;20201;-74
2021/07/28 06:40:21;;;;;;;17.70;11.60;;;;;;;22.63;81.96;100809.22;5957433;29;20544;-75
2021/07/28 06:43:25;;;;;;;13.63;11.80;;;;;;;22.92;80.86;100804.41;5961059;29;20210;-75
2021/07/28 06:46:30;;;;;;;16.05;12.23;;;;;;;22.90;81.04;100801.09;5960190;30;20201;-75
2021/07/28 06:49:35;;;;;;;16.00;11.10;;;;;;;22.97;81.04;100804.31;5961125;30;20193;-75
2021/07/28 06:52:40;;;;;;;11.80;10.68;;;;;;;23.04;80.35;100793.63;5960935;30;20204;-75
2021/07/28 06:55:48;;;;;;;20.27;12.05;;;;;;;23.07;80.24;100784.69;5961303;30;20198;-74
2021/07/28 06:58:53;;;;;;;11.85;10.65;;;;;;;23.16;78.83;100794.03;5961111;30;20193;-74
2021/07/28 07:01:57;;;;;;;12.68;11.55;;;;;;;23.26;78.97;100782.75;5959829;30;20250;-76
2021/07/28 07:05:05;;;;;;;15.15;11.55;;;;;;;23.38;78.37;100779.50;5962095;29;20245;-74
2021/07/28 07:08:14;;;;;;;12.65;11.35;;;;;;;23.24;77.59;100784.97;5959857;29;20194;-75
2021/07/28 07:11:21;;;;;;;16.77;11.15;;;;;;;23.31;77.09;100788.22;5960521;29;20197;-75
2021/07/28 07:14:25;;;;;;;12.80;10.68;;;;;;;23.48;75.76;100791.31;5959773;30;20381;-75
2021/07/28 07:17:29;;;;;;;16.17;10.63;;;;;;;23.46;75.55;100788.00;5960810;30;20256;-75
2021/07/28 07:20:36;;;;;;;12.98;11.10;;;;;;;23.62;76.08;100786.59;5959245;29;20436;-76
2021/07/28 07:23:41;;;;;;;12.20;10.95;;;;;;;23.55;76.46;100794.53;5960710;30;20194;-76
2021/07/28 07:26:45;;;;;;;12.57;11.30;;;;;;;23.69;75.80;100797.38;5959482;30;20204;-75
2021/07/28 07:29:49;;;;;;;12.18;10.77;;;;;;;23.60;75.12;100777.72;5959401;29;20379;-76
2021/07/28 07:36:15;;;;;;;10.32;9.40;;;;;;;23.51;72.36;100792.66;5959364;30;20209;-75
2021/07/28 07:39:19;;;;;;;10.98;9.98;;;;;;;23.59;71.79;100791.97;5960487;29;20247;-75
2021/07/28 07:42:23;;;;;;;10.90;9.90;;;;;;;23.63;71.95;100793.00;5960310;30;20221;-75
2021/07/28 07:45:29;;;;;;;11.60;9.85;;;;;;;23.63;71.62;100788.25;5960092;30;20194;-75
2021/07/28 07:48:33;;;;;;;10.70;9.80;;;;;;;23.55;71.57;100786.16;5958874;30;20198;-75
2021/07/28 07:51:39;;;;;;;10.73;9.63;;;;;;;23.44;71.44;100778.31;5958382;29;20238;-76
2021/07/28 07:54:45;;;;;;;11.70;9.18;;;;;;;23.38;70.74;100790.66;5960235;30;20194;-75
2021/07/28 07:57:49;;;;;;;10.05;9.25;;;;;;;23.29;71.11;100776.53;5959264;30;20492;-75
2021/07/28 08:00:53;;;;;;;10.80;9.45;;;;;;;23.13;71.70;100779.88;5959562;30;20194;-75
2021/07/28 08:03:57;;;;;;;12.27;9.18;;;;;;;23.11;72.04;100788.53;5959314;30;20532;-74
2021/07/28 08:07:03;;;;;;;10.55;9.48;;;;;;;23.08;71.63;100786.38;5959796;30;20194;-74
2021/07/28 08:10:09;;;;;;;9.95;8.82;;;;;;;23.10;71.33;100783.25;5959827;30;20251;-75
2021/07/28 08:13:15;;;;;;;10.43;9.43;;;;;;;23.02;70.97;100782.00;5959433;30;20201;-75
2021/07/28 08:16:22;;;;;;;9.15;8.35;;;;;;;22.93;70.12;100784.59;5958358;30;20497;-75
2021/07/28 08:19:26;;;;;;;9.23;8.30;;;;;;;22.97;69.75;100782.06;5959445;30;20549;-75
2021/07/28 08:22:32;;;;;;;10.98;9.35;;;;;;;23.08;70.41;100778.81;5959220;29;20547;-75
2021/07/28 08:25:36;;;;;;;12.77;9.85;;;;;;;23.12;70.51;100781.84;5958201;30;20251;-75
2021/07/28 08:28:43;;;;;;;9.80;8.80;;;;;;;23.25;70.42;100781.06;5957531;30;20266;-75
2021/07/28 08:31:50;;;;;;;9.90;8.65;;;;;;;23.11;70.72;100782.97;5958369;30;20437;-75
2021/07/28 08:34:54;;;;;;;10.77;8.98;;;;;;;23.26;70.54;100782.75;5958363;30;20393;-75
2021/07/28 08:38:00;;;;;;;10.05;9.15;;;;;;;23.32;70.11;100781.50;5958423;30;20193;-76
2021/07/28 08:41:05;;;;;;;9.82;8.75;;;;;;;23.42;69.48;100781.38;5959085;30;20194;-75
2021/07/28 08:44:11;;;;;;;11.38;9.55;;;;;;;23.36;71.11;100777.03;5957876;30;20437;-76
2021/07/28 08:47:19;;;;;;;10.82;9.75;;;;;;;23.39;72.96;100779.22;5957778;30;20512;-75
2021/07/28 08:50:27;;;;;;;11.30;10.00;;;;;;;23.31;74.87;100784.63;5958881;30;20198;-75
2021/07/28 08:53:33;;;;;;;12.55;11.18;;;;;;;23.16;76.72;100785.69;5956665;29;20405;-75
2021/07/28 08:56:40;;;;;;;13.50;10.93;;;;;;;23.34;75.80;100768.09;5958651;30;20194;-75
2021/07/28 08:59:45;;;;;;;11.90;10.77;;;;;;;23.32;76.62;100770.38;5956956;30;20209;-74
2021/07/28 09:02:50;;;;;;;12.85;11.55;;;;;;;23.36;76.69;100760.34;5957397;30;20241;-75
2021/07/28 09:05:57;;;;;;;13.57;12.00;;;;;;;23.36;77.32;100765.91;5958290;30;20194;-75
2021/07/28 09:09:03;;;;;;;15.25;12.15;;;;;;;23.34;78.49;100756.97;5957377;30;20557;-75
2021/07/28 09:12:10;;;;;;;13.88;12.10;;;;;;;23.40;79.03;100763.31;5957860;29;20233;-75
2021/07/28 09:15:16;;;;;;;16.35;12.43;;;;;;;23.49;79.47;100770.69;5957258;30;20290;-75
2021/07/28 09:18:31;;;;;;;16.63;12.57;;;;;;;23.51;80.58;100771.22;5958610;30;20193;-75
2021/07/28 09:21:35;;;;;;;14.77;13.18;;;;;;;23.53;80.90;100788.44;5957456;30;20210;-75
2021/07/28 09:24:44;;;;;;;16.17;13.48;;;;;;;23.41;82.91;100782.53;5958955;30;20233;-75
2021/07/28 09:27:49;;;;;;;22.05;14.05;;;;;;;23.43;83.80;100777.47;5965518;30;20193;-75
2021/07/28 09:30:53;;;;;;;16.92;13.65;;;;;;;23.47;83.76;100778.50;5967557;30;20225;-74
2021/07/28 09:34:29;;;;;;;15.98;14.25;;;;;;;23.36;86.45;100779.81;5961910;30;20201;-75
2021/07/28 09:37:39;;;;;;;20.67;14.13;;;;;;;23.53;84.22;100782.88;5956571;30;20194;-74
2021/07/28 09:40:47;;;;;;;15.05;12.10;;;;;;;23.44;83.95;100779.13;5955721;30;20304;-75
2021/07/28 09:43:57;;;;;;;13.32;12.05;;;;;;;23.39;82.39;100770.88;5956748;30;20551;-75
2021/07/28 09:47:07;;;;;;;12.90;11.20;;;;;;;23.27;81.96;100773.25;5956613;30;20535;-75
2021/07/28 09:50:15;;;;;;;17.73;12.52;;;;;;;23.31;81.92;100785.44;5957332;30;20194;-76
2021/07/28 09:53:29;;;;;;;12.40;11.18;;;;;;;23.29;82.71;100778.53;5958214;30;20198;-76
2021/07/28 09:56:41;;;;;;;14.00;11.68;;;;;;;23.40;83.39;100766.94;5956619;30;20258;-72
2021/07/28 09:59:46;;;;;;;11.80;10.73;;;;;;;23.41;82.09;100767.78;5957772;30;20197;-74
2021/07/28 10:02:52;;;;;;;12.63;11.43;;;;;;;23.45;81.35;100769.63;5957153;30;20233;-76
2021/07/28 10:05:57;;;;;;;12.45;11.18;;;;;;;23.44;79.81;100768.00;5956552;30;20481;-76
2021/07/28 10:09:02;;;;;;;14.68;11.45;;;;;;;23.47;79.56;100764.59;5957063;29;20193;-76
2021/07/28 10:12:08;;;;;;;14.95;11.60;;;;;;;23.27;78.29;100758.50;5957549;30;20210;-76
2021/07/28 10:15:15;;;;;;;16.40;12.88;;;;;;;23.11;78.73;100757.94;5959000;29;20200;-75
2021/07/28 10:18:20;;;;;;;17.08;11.73;;;;;;;23.17;78.77;100758.66;5961512;29;20241;-76
2021/07/28 10:21:35;;;;;;;13.57;11.15;;;;;;;23.39;77.92;100750.56;5961140;30;20275;-76
2021/07/28 10:24:40;;;;;;;14.50;11.05;;;;;;;23.47;78.22;100745.09;5961091;30;20589;-76
2021/07/28 10:27:50;;;;;;;14.20;11.05;;;;;;;23.56;77.44;100748.84;5960855;30;20221;-76
2021/07/28 10:31:14;;;;;;;13.18;11.05;;;;;;;23.65;77.31;100747.00;5960648;30;20235;-75
2021/07/28 10:34:24;;;;;;;12.25;11.07;;;;;;;23.77;76.67;100745.69;5960391;30;20214;-75
2021/07/28 10:37:30;;;;;;;11.88;10.88;;;;;;;23.67;76.62;100739.19;5961094;29;20215;-75
2021/07/28 10:40:58;;;;;;;12.05;10.82;;;;;;;23.36;76.77;100738.06;5961518;30;20275;-75
2021/07/28 10:44:10;;;;;;;11.65;10.52;;;;;;;23.58;76.33;100749.38;5960188;30;20225;-76
2021/07/28 10:47:16;;;;;;;15.68;11.15;;;;;;;23.75;76.17;100745.19;5961421;30;20250;-75
2021/07/28 10:50:44;;;;;;;15.05;11.65;;;;;;;23.60;75.95;100733.16;5961491;29;20261;-75
2021/07/28 10:53:49;;;;;;;15.38;11.32;;;;;;;23.67;76.41;100728.06;5961475;30;20198;-76
2021/07/28 10:57:08;;;;;;;12.70;11.43;;;;;;;23.89;75.51;100740.44;5960410;29;20499;-76
2021/07/28 11:00:14;;;;;;;12.05;10.77;;;;;;;23.89;75.67;100737.66;5959918;30;20202;-76
2021/07/28 11:03:19;;;;;;;12.55;9.95;;;;;;;23.40;72.97;100730.75;5959811;30;20256;-76
2021/07/28 11:06:25;;;;;;;12.07;10.88;;;;;;;23.66;74.25;100731.13;5959938;29;20194;-76
2021/07/28 11:09:29;;;;;;;11.65;10.65;;;;;;;23.80;74.06;100723.63;5960979;30;20220;-76
2021/07/28 11:12:34;;;;;;;10.88;9.93;;;;;;;23.46;72.81;100737.06;5961280;30;20315;-76
2021/07/28 11:15:42;;;;;;;10.80;9.88;;;;;;;23.57;72.90;100722.63;5960941;29;20268;-75
2021/07/28 11:18:49;;;;;;;10.77;9.68;;;;;;;23.85;72.64;100723.53;5961090;30;20249;-75
2021/07/28 11:21:53;;;;;;;14.00;10.05;;;;;;;23.68;71.08;100724.13;5960557;30;20295;-75
2021/07/28 11:24:58;;;;;;;12.93;10.48;;;;;;;23.87;71.91;100720.44;5959592;30;20442;-75
2021/07/28 11:28:05;;;;;;;10.80;9.80;;;;;;;24.13;70.85;100718.84;5958520;29;20379;-75
2021/07/28 11:31:11;;;;;;;10.27;8.85;;;;;;;24.27;69.53;100730.78;5960868;30;20244;-76
2021/07/28 11:34:18;;;;;;;10.00;9.10;;;;;;;24.37;69.44;100725.00;5959624;30;20213;-75
2021/07/28 11:37:25;;;;;;;11.25;9.43;;;;;;;24.23;69.21;100727.81;5960649;30;20201;-77
2021/07/28 11:40:42;;;;;;;11.13;9.77;;;;;;;24.05;69.58;100713.94;5960802;30;20194;-76
2021/07/28 11:43:46;;;;;;;12.20;10.13;;;;;;;24.18;70.69;100702.00;5959117;30;20590;-75
2021/07/28 11:46:53;;;;;;;11.52;10.45;;;;;;;24.21;71.37;100699.44;5959107;29;20460;-75
2021/07/28 11:50:03;;;;;;;12.90;10.18;;;;;;;23.98;69.65;100705.16;5960188;30;20221;-76
2021/07/28 11:53:13;;;;;;;11.77;10.65;;;;;;;24.04;70.34;100706.69;5958263;30;20381;-76
2021/07/28 11:56:18;;;;;;;10.82;9.75;;;;;;;24.15;70.70;100694.25;5958896;30;20198;-75
2021/07/28 11:59:23;;;;;;;11.77;9.77;;;;;;;24.22;71.08;100694.66;5958957;30;20223;-76
2021/07/28 12:02:29;;;;;;;12.18;10.00;;;;;;;24.08;70.68;100711.41;5959110;30;20472;-76
2021/07/28 12:05:34;;;;;;;14.75;10.38;;;;;;;24.18;71.16;100711.19;5958944;30;20502;-76
2021/07/28 12:08:40;;;;;;;13.13;9.68;;;;;;;24.26;70.38;100706.84;5960330;30;20225;-76
2021/07/28 12:11:55;;;;;;;10.82;9.93;;;;;;;24.26;70.67;100701.28;5959876;30;20194;-75
2021/07/28 12:15:12;;;;;;;15.23;10.40;;;;;;;24.14;70.41;100699.00;5958844;30;20233;-77
2021/07/28 12:18:17;;;;;;;12.77;10.60;;;;;;;23.95;71.01;100697.44;5958419;30;20194;-77
2021/07/28 12:21:22;;;;;;;12.98;10.23;;;;;;;23.99;71.43;100695.66;5958817;30;20360;-76
2021/07/28 12:24:40;;;;;;;12.25;11.00;;;;;;;24.01;72.00;100710.13;5960128;30;20221;-75
2021/07/28 12:27:59;;;;;;;12.80;10.30;;;;;;;24.00;72.73;100714.03;5958244;30;20501;-75
2021/07/28 12:31:03;;;;;;;13.02;10.65;;;;;;;23.90;73.65;100717.03;5959282;30;20194;-75
2021/07/28 12:34:23;;;;;;;11.70;10.70;;;;;;;23.91;73.20;100727.06;5958631;30;20385;-75
2021/07/28 12:37:30;;;;;;;12.65;11.40;;;;;;;23.85;75.78;100722.69;5957933;29;20210;-75
2021/07/28 12:40:36;;;;;;;14.15;11.50;;;;;;;23.75;76.78;100717.31;5959244;30;20301;-76
2021/07/28 12:43:40;;;;;;;12.68;10.57;;;;;;;23.65;77.52;100713.59;5959150;30;20257;-75
2021/07/28 12:46:44;;;;;;;13.43;10.73;;;;;;;23.58;78.15;100707.59;5958922;30;20225;-75
2021/07/28 12:49:51;;;;;;;12.07;10.70;;;;;;;23.55;78.46;100713.78;5958756;29;20193;-75
2021/07/28 12:52:55;;;;;;;17.20;11.73;;;;;;;23.59;78.52;100709.25;5958484;30;20197;-75
2021/07/28 12:56:00;;;;;;;17.77;9.90;;;;;;;23.56;78.25;100723.78;5958709;30;20205;-76
2021/07/28 12:59:07;;;;;;;16.52;10.70;;;;;;;23.47;78.98;100728.38;5958429;30;20194;-76
2021/07/28 13:02:13;;;;;;;12.35;10.43;;;;;;;23.48;78.92;100732.84;5958278;30;20342;-76
2021/07/28 13:05:21;;;;;;;11.38;9.32;;;;;;;23.33;79.50;100738.63;5958448;30;20253;-75
2021/07/28 13:08:25;;;;;;;13.35;8.60;;;;;;;23.22;79.77;100748.28;5958620;30;20193;-75
2021/07/28 13:11:29;;;;;;;8.48;7.63;;;;;;;22.99;80.92;100746.41;5958164;29;20513;-75
2021/07/28 13:14:34;;;;;;;9.50;7.20;;;;;;;22.95;81.92;100759.28;5957212;30;20198;-75
2021/07/28 13:17:39;;;;;;;6.05;5.63;;;;;;;22.81;80.13;100752.81;5957113;30;20200;-75
2021/07/28 13:20:45;;;;;;;8.23;5.85;;;;;;;22.66;80.13;100750.22;5958456;30;20235;-75
2021/07/28 13:23:49;;;;;;;4.70;4.45;;;;;;;22.55;78.84;100757.00;5957657;29;20438;-75
2021/07/28 13:26:55;;;;;;;4.57;4.28;;;;;;;22.35;78.53;100750.59;5956939;29;20248;-75
2021/07/28 13:30:00;;;;;;;4.55;4.25;;;;;;;22.24;78.04;100754.63;5957873;30;20193;-75
2021/07/28 13:33:05;;;;;;;4.22;4.03;;;;;;;22.35;78.58;100756.16;5958237;30;20200;-75
2021/07/28 13:36:11;;;;;;;7.50;4.47;;;;;;;22.20;79.22;100758.31;5956892;30;20236;-75
2021/07/28 13:39:15;;;;;;;4.97;4.68;;;;;;;22.28;79.33;100769.59;5956882;30;20502;-75
2021/07/28 13:42:19;;;;;;;5.18;4.15;;;;;;;22.29;79.10;100765.69;5956888;30;20201;-74
2021/07/28 13:45:23;;;;;;;4.82;4.43;;;;;;;22.28;79.24;100760.44;5958452;30;20260;-75
2021/07/28 13:48:30;;;;;;;4.45;4.13;;;;;;;22.06;79.58;100774.03;5957687;30;20200;-75
2021/07/28 13:51:35;;;;;;;5.95;5.05;;;;;;;22.21;80.18;100766.31;5956020;30;20193;-75
2021/07/28 13:54:40;;;;;;;4.88;4.68;;;;;;;22.19;81.41;100757.47;5956548;30;20202;-76
2021/07/28 13:57:44;;;;;;;5.00;4.68;;;;;;;22.17;81.15;100754.16;5957027;29;20209;-75
2021/07/28 14:00:51;;;;;;;5.18;4.72;;;;;;;22.26;81.81;100749.59;5957350;30;20302;-75
2021/07/28 14:03:55;;;;;;;7.22;6.72;;;;;;;22.23;81.63;100744.66;5957759;30;20248;-75
2021/07/28 14:07:01;;;;;;;7.68;5.07;;;;;;;22.27;80.71;100742.94;5956044;30;20229;-75
2021/07/28 14:10:08;;;;;;;5.70;5.20;;;;;;;22.23;79.95;100735.47;5956370;30;20193;-75
2021/07/28 14:13:15;;;;;;;5.60;5.10;;;;;;;22.21;80.18;100730.22;5956828;30;20282;-75
2021/07/28 14:16:20;;;;;;;7.20;5.00;;;;;;;22.31;79.33;100724.56;5957576;30;20197;-75